Skip Navigation Links Skip Navigation Links

Current Weather

Chicago Midway, Chicago

For information only: do not use for flight planning or navigation.
Latest weather
Observation time Tuesday, September 28, 2021 4:53 AM CDT
Local time Tuesday, September 28, 2021 5:33 AM CDT
Flight conditions Visual Meteorological Conditions
Winds
Wind direction Northeast (50°)
Wind speed 10 mph
Visibility 10 mi.
Sky condition
Ceiling unlimited
Cloud layer few clouds 1,300 ft.
Temperature 63°F
Dewpoint 56°F
Altimeter 29.94 in.Hg
Derived measurements
Relative humidity 78%
Density altitude 1070 ft.
Sea-level pressure 29.91 in.Hg
Remarks
Automated weather observing station with precipitation discriminator.
METAR KMDW 280953Z 05009KT 10SM FEW013 17/13 A2994 RMK AO2 SLP128 T01720133

Settings

Location code

InnerDrive.Weather 4.0.6770.0 Release CLR 4.0.30319.42000
Copyright ©2018 Inner Drive Technology. All rights reserved. Portions Copyright ©1986-2018 David Braverman.

Find weather

Site navigation


Skip Navigation Links

Place info

Page info

PayPal - The safer, easier way to pay online!

Return home.

Copyright ©2021 Inner Drive Technology. Purveyors of fine, hand-crafted computer software. Page printed 2021-09-28T10:33:55 UTC.